sensor_id;sensor_type;location;lat;lon;timestamp;P1;durP1;ratioP1;P2;durP2;ratioP2
18931;SDS011;9598;50.954;3.112;2022-09-27T00:00:17;3.97;;;2.03;;
18931;SDS011;9598;50.954;3.112;2022-09-27T00:05:21;4.03;;;1.38;;
18931;SDS011;9598;50.954;3.112;2022-09-27T00:10:23;3.47;;;1.40;;
18931;SDS011;9598;50.954;3.112;2022-09-27T00:15:28;4.43;;;1.80;;
18931;SDS011;9598;50.954;3.112;2022-09-27T00:20:33;5.65;;;1.77;;
18931;SDS011;9598;50.954;3.112;2022-09-27T00:25:35;2.75;;;1.90;;
18931;SDS011;9598;50.954;3.112;2022-09-27T00:30:40;3.60;;;2.20;;
18931;SDS011;9598;50.954;3.112;2022-09-27T00:35:43;4.45;;;1.92;;
18931;SDS011;9598;50.954;3.112;2022-09-27T00:40:46;5.65;;;2.10;;
18931;SDS011;9598;50.954;3.112;2022-09-27T00:45:48;4.03;;;2.13;;
18931;SDS011;9598;50.954;3.112;2022-09-27T00:50:58;2.63;;;2.10;;
18931;SDS011;9598;50.954;3.112;2022-09-27T00:56:05;5.40;;;2.67;;
18931;SDS011;9598;50.954;3.112;2022-09-27T01:01:10;4.68;;;2.50;;
18931;SDS011;9598;50.954;3.112;2022-09-27T01:06:15;5.68;;;2.53;;
18931;SDS011;9598;50.954;3.112;2022-09-27T01:11:26;5.85;;;2.70;;
18931;SDS011;9598;50.954;3.112;2022-09-27T01:16:42;3.08;;;2.47;;
18931;SDS011;9598;50.954;3.112;2022-09-27T01:21:55;7.60;;;2.70;;
18931;SDS011;9598;50.954;3.112;2022-09-27T01:27:07;3.25;;;2.00;;
18931;SDS011;9598;50.954;3.112;2022-09-27T01:32:31;5.25;;;2.38;;
18931;SDS011;9598;50.954;3.112;2022-09-27T01:37:40;1.88;;;1.38;;
18931;SDS011;9598;50.954;3.112;2022-09-27T01:42:52;2.45;;;1.17;;
18931;SDS011;9598;50.954;3.112;2022-09-27T01:48:06;2.17;;;1.50;;
18931;SDS011;9598;50.954;3.112;2022-09-27T01:53:30;3.80;;;1.40;;
18931;SDS011;9598;50.954;3.112;2022-09-27T01:59:05;2.45;;;1.15;;
18931;SDS011;9598;50.954;3.112;2022-09-27T02:04:18;4.28;;;1.55;;
18931;SDS011;9598;50.954;3.112;2022-09-27T02:09:44;2.58;;;1.33;;
18931;SDS011;9598;50.954;3.112;2022-09-27T02:14:56;1.90;;;1.27;;
18931;SDS011;9598;50.954;3.112;2022-09-27T02:20:07;4.22;;;1.48;;
18931;SDS011;9598;50.954;3.112;2022-09-27T02:25:22;1.25;;;1.15;;
18931;SDS011;9598;50.954;3.112;2022-09-27T02:30:30;2.38;;;1.20;;
18931;SDS011;9598;50.954;3.112;2022-09-27T02:35:42;2.70;;;1.20;;
18931;SDS011;9598;50.954;3.112;2022-09-27T02:40:46;2.60;;;1.10;;
18931;SDS011;9598;50.954;3.112;2022-09-27T02:45:52;2.30;;;1.60;;
18931;SDS011;9598;50.954;3.112;2022-09-27T02:51:08;2.95;;;1.33;;
18931;SDS011;9598;50.954;3.112;2022-09-27T02:56:24;2.05;;;1.30;;
18931;SDS011;9598;50.954;3.112;2022-09-27T03:02:12;2.67;;;1.40;;
18931;SDS011;9598;50.954;3.112;2022-09-27T03:07:37;3.75;;;1.45;;
18931;SDS011;9598;50.954;3.112;2022-09-27T03:12:39;2.70;;;1.63;;
18931;SDS011;9598;50.954;3.112;2022-09-27T03:17:42;1.50;;;1.40;;
18931;SDS011;9598;50.954;3.112;2022-09-27T03:23:20;2.03;;;1.67;;
18931;SDS011;9598;50.954;3.112;2022-09-27T03:28:22;1.70;;;1.45;;
18931;SDS011;9598;50.954;3.112;2022-09-27T03:33:25;6.15;;;2.00;;
18931;SDS011;9598;50.954;3.112;2022-09-27T03:38:38;2.05;;;1.80;;
18931;SDS011;9598;50.954;3.112;2022-09-27T03:43:44;1.70;;;1.60;;
18931;SDS011;9598;50.954;3.112;2022-09-27T03:48:46;3.35;;;2.08;;
18931;SDS011;9598;50.954;3.112;2022-09-27T03:53:50;5.00;;;2.50;;
18931;SDS011;9598;50.954;3.112;2022-09-27T03:58:52;3.78;;;2.20;;
18931;SDS011;9598;50.954;3.112;2022-09-27T04:03:54;2.45;;;2.20;;
18931;SDS011;9598;50.954;3.112;2022-09-27T04:09:06;4.22;;;2.40;;
18931;SDS011;9598;50.954;3.112;2022-09-27T04:14:27;3.03;;;2.10;;
18931;SDS011;9598;50.954;3.112;2022-09-27T04:19:49;4.60;;;2.25;;
18931;SDS011;9598;50.954;3.112;2022-09-27T04:24:52;4.28;;;2.53;;
18931;SDS011;9598;50.954;3.112;2022-09-27T04:30:01;3.60;;;2.10;;
18931;SDS011;9598;50.954;3.112;2022-09-27T04:35:41;4.07;;;2.53;;
18931;SDS011;9598;50.954;3.112;2022-09-27T04:41:02;4.55;;;2.42;;
18931;SDS011;9598;50.954;3.112;2022-09-27T04:46:07;4.72;;;3.67;;
18931;SDS011;9598;50.954;3.112;2022-09-27T04:51:09;4.90;;;3.08;;
18931;SDS011;9598;50.954;3.112;2022-09-27T04:56:13;3.88;;;3.05;;
18931;SDS011;9598;50.954;3.112;2022-09-27T05:01:15;3.60;;;2.30;;
18931;SDS011;9598;50.954;3.112;2022-09-27T05:06:50;4.75;;;2.33;;
18931;SDS011;9598;50.954;3.112;2022-09-27T05:12:04;4.75;;;2.47;;
18931;SDS011;9598;50.954;3.112;2022-09-27T05:17:15;6.78;;;2.55;;
18931;SDS011;9598;50.954;3.112;2022-09-27T05:22:38;2.78;;;1.65;;
18931;SDS011;9598;50.954;3.112;2022-09-27T05:27:42;4.80;;;2.10;;
18931;SDS011;9598;50.954;3.112;2022-09-27T05:32:44;1.75;;;1.60;;
18931;SDS011;9598;50.954;3.112;2022-09-27T05:38:07;1.55;;;1.45;;
18931;SDS011;9598;50.954;3.112;2022-09-27T05:43:12;1.83;;;1.30;;
18931;SDS011;9598;50.954;3.112;2022-09-27T05:48:15;2.83;;;1.50;;
18931;SDS011;9598;50.954;3.112;2022-09-27T05:53:25;2.88;;;1.60;;
18931;SDS011;9598;50.954;3.112;2022-09-27T05:58:29;2.10;;;1.52;;
18931;SDS011;9598;50.954;3.112;2022-09-27T06:03:44;1.65;;;1.40;;
18931;SDS011;9598;50.954;3.112;2022-09-27T06:08:55;2.08;;;1.67;;
18931;SDS011;9598;50.954;3.112;2022-09-27T06:14:01;3.35;;;1.63;;
18931;SDS011;9598;50.954;3.112;2022-09-27T06:19:07;4.32;;;1.58;;
18931;SDS011;9598;50.954;3.112;2022-09-27T06:24:09;3.08;;;1.52;;
18931;SDS011;9598;50.954;3.112;2022-09-27T06:29:13;3.97;;;1.92;;
18931;SDS011;9598;50.954;3.112;2022-09-27T06:34:24;1.77;;;1.67;;
18931;SDS011;9598;50.954;3.112;2022-09-27T06:39:27;4.45;;;2.17;;
18931;SDS011;9598;50.954;3.112;2022-09-27T06:44:56;7.10;;;2.20;;
18931;SDS011;9598;50.954;3.112;2022-09-27T06:50:16;4.03;;;1.83;;
18931;SDS011;9598;50.954;3.112;2022-09-27T06:55:19;4.75;;;3.40;;
18931;SDS011;9598;50.954;3.112;2022-09-27T07:00:23;4.53;;;2.70;;
18931;SDS011;9598;50.954;3.112;2022-09-27T07:05:52;5.65;;;2.90;;
18931;SDS011;9598;50.954;3.112;2022-09-27T07:11:25;5.15;;;2.47;;
18931;SDS011;9598;50.954;3.112;2022-09-27T07:16:29;5.85;;;1.90;;
18931;SDS011;9598;50.954;3.112;2022-09-27T07:21:35;3.03;;;1.80;;
18931;SDS011;9598;50.954;3.112;2022-09-27T07:26:38;6.07;;;2.13;;
18931;SDS011;9598;50.954;3.112;2022-09-27T07:31:43;5.18;;;2.80;;
18931;SDS011;9598;50.954;3.112;2022-09-27T07:36:45;4.38;;;1.90;;
18931;SDS011;9598;50.954;3.112;2022-09-27T07:41:48;5.07;;;2.10;;
18931;SDS011;9598;50.954;3.112;2022-09-27T07:46:51;7.90;;;2.38;;
18931;SDS011;9598;50.954;3.112;2022-09-27T07:51:58;5.85;;;2.53;;
18931;SDS011;9598;50.954;3.112;2022-09-27T07:57:22;2.88;;;1.55;;
18931;SDS011;9598;50.954;3.112;2022-09-27T08:02:28;5.75;;;2.90;;
18931;SDS011;9598;50.954;3.112;2022-09-27T08:07:32;6.05;;;3.53;;
18931;SDS011;9598;50.954;3.112;2022-09-27T08:12:34;7.93;;;3.92;;
18931;SDS011;9598;50.954;3.112;2022-09-27T08:17:38;3.80;;;1.90;;
18931;SDS011;9598;50.954;3.112;2022-09-27T08:22:56;7.15;;;3.90;;
18931;SDS011;9598;50.954;3.112;2022-09-27T08:28:02;3.10;;;1.88;;
18931;SDS011;9598;50.954;3.112;2022-09-27T08:33:29;5.65;;;2.25;;
18931;SDS011;9598;50.954;3.112;2022-09-27T08:38:31;3.15;;;1.95;;
18931;SDS011;9598;50.954;3.112;2022-09-27T08:43:33;3.58;;;1.48;;
18931;SDS011;9598;50.954;3.112;2022-09-27T08:48:41;1.98;;;1.02;;
18931;SDS011;9598;50.954;3.112;2022-09-27T08:53:45;4.00;;;1.80;;
18931;SDS011;9598;50.954;3.112;2022-09-27T08:58:55;3.10;;;1.20;;
18931;SDS011;9598;50.954;3.112;2022-09-27T09:04:07;2.38;;;1.10;;
18931;SDS011;9598;50.954;3.112;2022-09-27T09:09:15;4.28;;;1.63;;
18931;SDS011;9598;50.954;3.112;2022-09-27T09:14:56;1.92;;;1.67;;
18931;SDS011;9598;50.954;3.112;2022-09-27T09:20:15;5.85;;;2.00;;
18931;SDS011;9598;50.954;3.112;2022-09-27T09:25:32;3.33;;;1.80;;
18931;SDS011;9598;50.954;3.112;2022-09-27T09:30:45;3.75;;;1.90;;
18931;SDS011;9598;50.954;3.112;2022-09-27T09:35:58;4.05;;;2.30;;
18931;SDS011;9598;50.954;3.112;2022-09-27T09:41:06;6.88;;;2.60;;
18931;SDS011;9598;50.954;3.112;2022-09-27T09:46:17;7.28;;;2.08;;
18931;SDS011;9598;50.954;3.112;2022-09-27T09:51:25;5.20;;;3.45;;
18931;SDS011;9598;50.954;3.112;2022-09-27T09:56:31;5.63;;;3.10;;
18931;SDS011;9598;50.954;3.112;2022-09-27T10:01:38;8.68;;;3.83;;
18931;SDS011;9598;50.954;3.112;2022-09-27T10:06:45;4.57;;;2.17;;
18931;SDS011;9598;50.954;3.112;2022-09-27T10:11:47;3.67;;;1.40;;
18931;SDS011;9598;50.954;3.112;2022-09-27T10:16:53;5.47;;;1.17;;
18931;SDS011;9598;50.954;3.112;2022-09-27T10:22:00;4.30;;;1.10;;
18931;SDS011;9598;50.954;3.112;2022-09-27T10:27:04;4.18;;;1.58;;
18931;SDS011;9598;50.954;3.112;2022-09-27T10:32:17;5.22;;;2.10;;
18931;SDS011;9598;50.954;3.112;2022-09-27T10:37:29;5.72;;;1.90;;
18931;SDS011;9598;50.954;3.112;2022-09-27T10:42:44;6.30;;;2.10;;
18931;SDS011;9598;50.954;3.112;2022-09-27T10:47:47;5.55;;;1.98;;
18931;SDS011;9598;50.954;3.112;2022-09-27T10:53:02;4.15;;;1.65;;
18931;SDS011;9598;50.954;3.112;2022-09-27T10:58:05;6.93;;;2.28;;
18931;SDS011;9598;50.954;3.112;2022-09-27T11:03:16;7.50;;;2.00;;
18931;SDS011;9598;50.954;3.112;2022-09-27T11:08:27;6.10;;;1.67;;
18931;SDS011;9598;50.954;3.112;2022-09-27T11:13:35;8.80;;;2.92;;
18931;SDS011;9598;50.954;3.112;2022-09-27T11:18:45;8.55;;;3.15;;
18931;SDS011;9598;50.954;3.112;2022-09-27T11:24:08;7.70;;;4.03;;
18931;SDS011;9598;50.954;3.112;2022-09-27T11:29:21;7.75;;;3.40;;
18931;SDS011;9598;50.954;3.112;2022-09-27T11:34:48;4.22;;;2.08;;
18931;SDS011;9598;50.954;3.112;2022-09-27T11:40:06;4.22;;;1.55;;
18931;SDS011;9598;50.954;3.112;2022-09-27T11:45:21;6.45;;;1.60;;
18931;SDS011;9598;50.954;3.112;2022-09-27T11:50:36;6.57;;;2.08;;
18931;SDS011;9598;50.954;3.112;2022-09-27T11:56:01;3.72;;;1.63;;
18931;SDS011;9598;50.954;3.112;2022-09-27T12:01:13;5.93;;;2.22;;
18931;SDS011;9598;50.954;3.112;2022-09-27T12:06:24;5.00;;;1.70;;
18931;SDS011;9598;50.954;3.112;2022-09-27T12:11:40;4.28;;;1.90;;
18931;SDS011;9598;50.954;3.112;2022-09-27T12:16:46;4.65;;;1.73;;
18931;SDS011;9598;50.954;3.112;2022-09-27T12:21:53;4.00;;;1.60;;
18931;SDS011;9598;50.954;3.112;2022-09-27T12:27:02;4.95;;;1.42;;
18931;SDS011;9598;50.954;3.112;2022-09-27T12:32:10;5.80;;;1.83;;
18931;SDS011;9598;50.954;3.112;2022-09-27T12:37:18;5.40;;;1.77;;
18931;SDS011;9598;50.954;3.112;2022-09-27T12:42:27;4.50;;;1.20;;
18931;SDS011;9598;50.954;3.112;2022-09-27T12:47:42;3.03;;;1.23;;
18931;SDS011;9598;50.954;3.112;2022-09-27T12:52:53;2.70;;;1.40;;
18931;SDS011;9598;50.954;3.112;2022-09-27T12:58:12;3.28;;;1.55;;
18931;SDS011;9598;50.954;3.112;2022-09-27T13:03:39;3.25;;;1.20;;
18931;SDS011;9598;50.954;3.112;2022-09-27T13:08:59;2.67;;;1.25;;
18931;SDS011;9598;50.954;3.112;2022-09-27T13:14:31;7.90;;;2.95;;
18931;SDS011;9598;50.954;3.112;2022-09-27T13:19:40;5.53;;;2.05;;
18931;SDS011;9598;50.954;3.112;2022-09-27T13:24:46;7.22;;;1.67;;
18931;SDS011;9598;50.954;3.112;2022-09-27T13:36:05;4.80;;;1.33;;
18931;SDS011;9598;50.954;3.112;2022-09-27T13:41:19;3.05;;;1.58;;
18931;SDS011;9598;50.954;3.112;2022-09-27T13:46:28;3.83;;;1.65;;
18931;SDS011;9598;50.954;3.112;2022-09-27T13:51:39;5.32;;;1.70;;
18931;SDS011;9598;50.954;3.112;2022-09-27T13:56:48;4.43;;;1.70;;
18931;SDS011;9598;50.954;3.112;2022-09-27T14:01:55;6.15;;;2.17;;
18931;SDS011;9598;50.954;3.112;2022-09-27T14:07:09;4.22;;;1.60;;
18931;SDS011;9598;50.954;3.112;2022-09-27T14:12:16;3.47;;;1.50;;
18931;SDS011;9598;50.954;3.112;2022-09-27T14:17:21;6.30;;;1.70;;
18931;SDS011;9598;50.954;3.112;2022-09-27T14:22:26;6.78;;;1.83;;
18931;SDS011;9598;50.954;3.112;2022-09-27T14:27:37;4.90;;;1.50;;
18931;SDS011;9598;50.954;3.112;2022-09-27T14:32:53;5.13;;;1.95;;
18931;SDS011;9598;50.954;3.112;2022-09-27T14:38:11;7.68;;;2.20;;
18931;SDS011;9598;50.954;3.112;2022-09-27T14:43:16;4.80;;;1.67;;
18931;SDS011;9598;50.954;3.112;2022-09-27T14:48:21;4.93;;;1.90;;
18931;SDS011;9598;50.954;3.112;2022-09-27T14:53:29;5.53;;;2.25;;
18931;SDS011;9598;50.954;3.112;2022-09-27T14:58:32;7.15;;;2.28;;
18931;SDS011;9598;50.954;3.112;2022-09-27T15:03:34;6.43;;;2.40;;
18931;SDS011;9598;50.954;3.112;2022-09-27T15:08:40;8.70;;;2.58;;
18931;SDS011;9598;50.954;3.112;2022-09-27T15:13:48;5.38;;;2.50;;
18931;SDS011;9598;50.954;3.112;2022-09-27T15:18:57;7.40;;;2.40;;
18931;SDS011;9598;50.954;3.112;2022-09-27T15:24:04;8.43;;;2.55;;
18931;SDS011;9598;50.954;3.112;2022-09-27T15:29:14;9.15;;;2.70;;
18931;SDS011;9598;50.954;3.112;2022-09-27T15:34:18;8.35;;;2.83;;
18931;SDS011;9598;50.954;3.112;2022-09-27T15:39:26;9.27;;;3.20;;
18931;SDS011;9598;50.954;3.112;2022-09-27T15:49:55;7.82;;;2.83;;
18931;SDS011;9598;50.954;3.112;2022-09-27T15:54:58;6.95;;;2.67;;
18931;SDS011;9598;50.954;3.112;2022-09-27T16:00:00;7.22;;;2.53;;
18931;SDS011;9598;50.954;3.112;2022-09-27T16:05:12;4.47;;;2.05;;
18931;SDS011;9598;50.954;3.112;2022-09-27T16:10:16;4.63;;;2.08;;
18931;SDS011;9598;50.954;3.112;2022-09-27T16:15:20;4.28;;;1.70;;
18931;SDS011;9598;50.954;3.112;2022-09-27T16:20:24;4.95;;;2.30;;
18931;SDS011;9598;50.954;3.112;2022-09-27T16:25:28;6.50;;;3.03;;
18931;SDS011;9598;50.954;3.112;2022-09-27T16:30:31;5.72;;;2.78;;
18931;SDS011;9598;50.954;3.112;2022-09-27T16:35:33;7.22;;;2.88;;
18931;SDS011;9598;50.954;3.112;2022-09-27T16:40:36;4.72;;;1.88;;
18931;SDS011;9598;50.954;3.112;2022-09-27T16:45:38;6.38;;;1.98;;
18931;SDS011;9598;50.954;3.112;2022-09-27T16:50:40;4.95;;;1.30;;
18931;SDS011;9598;50.954;3.112;2022-09-27T16:56:01;1.55;;;1.25;;
18931;SDS011;9598;50.954;3.112;2022-09-27T17:01:04;1.65;;;1.20;;
18931;SDS011;9598;50.954;3.112;2022-09-27T17:06:07;1.95;;;1.42;;
18931;SDS011;9598;50.954;3.112;2022-09-27T17:11:11;3.15;;;1.27;;
18931;SDS011;9598;50.954;3.112;2022-09-27T17:16:15;0.88;;;0.80;;
18931;SDS011;9598;50.954;3.112;2022-09-27T17:21:17;1.38;;;0.98;;
18931;SDS011;9598;50.954;3.112;2022-09-27T17:26:21;2.08;;;1.05;;
18931;SDS011;9598;50.954;3.112;2022-09-27T17:31:25;5.03;;;1.60;;
18931;SDS011;9598;50.954;3.112;2022-09-27T17:36:30;1.30;;;1.20;;
18931;SDS011;9598;50.954;3.112;2022-09-27T17:41:37;2.20;;;1.45;;
18931;SDS011;9598;50.954;3.112;2022-09-27T17:46:40;1.70;;;1.60;;
18931;SDS011;9598;50.954;3.112;2022-09-27T17:51:44;1.02;;;1.00;;
18931;SDS011;9598;50.954;3.112;2022-09-27T17:56:49;1.10;;;1.00;;
18931;SDS011;9598;50.954;3.112;2022-09-27T18:01:51;1.40;;;1.30;;
18931;SDS011;9598;50.954;3.112;2022-09-27T18:06:53;2.40;;;1.65;;
18931;SDS011;9598;50.954;3.112;2022-09-27T18:11:57;1.95;;;1.75;;
18931;SDS011;9598;50.954;3.112;2022-09-27T18:16:59;2.30;;;1.60;;
18931;SDS011;9598;50.954;3.112;2022-09-27T18:22:01;2.22;;;1.73;;
18931;SDS011;9598;50.954;3.112;2022-09-27T18:27:05;3.75;;;2.20;;
18931;SDS011;9598;50.954;3.112;2022-09-27T18:32:07;2.50;;;2.00;;
18931;SDS011;9598;50.954;3.112;2022-09-27T18:37:10;4.90;;;3.63;;
18931;SDS011;9598;50.954;3.112;2022-09-27T18:42:13;3.95;;;3.65;;
18931;SDS011;9598;50.954;3.112;2022-09-27T18:47:15;2.90;;;2.70;;
18931;SDS011;9598;50.954;3.112;2022-09-27T18:52:17;3.63;;;2.60;;
18931;SDS011;9598;50.954;3.112;2022-09-27T18:57:21;4.90;;;2.88;;
18931;SDS011;9598;50.954;3.112;2022-09-27T19:02:23;4.65;;;2.85;;
18931;SDS011;9598;50.954;3.112;2022-09-27T19:07:25;4.15;;;2.80;;
18931;SDS011;9598;50.954;3.112;2022-09-27T19:12:29;4.70;;;2.42;;
18931;SDS011;9598;50.954;3.112;2022-09-27T19:17:31;5.72;;;2.65;;
18931;SDS011;9598;50.954;3.112;2022-09-27T19:22:33;4.13;;;2.40;;
18931;SDS011;9598;50.954;3.112;2022-09-27T19:27:36;4.72;;;3.30;;
18931;SDS011;9598;50.954;3.112;2022-09-27T19:32:39;5.82;;;2.67;;
18931;SDS011;9598;50.954;3.112;2022-09-27T19:37:41;3.15;;;1.63;;
18931;SDS011;9598;50.954;3.112;2022-09-27T19:42:49;5.40;;;2.72;;
18931;SDS011;9598;50.954;3.112;2022-09-27T19:47:51;3.15;;;2.60;;
18931;SDS011;9598;50.954;3.112;2022-09-27T19:52:54;4.95;;;2.78;;
18931;SDS011;9598;50.954;3.112;2022-09-27T19:57:58;3.25;;;2.30;;
18931;SDS011;9598;50.954;3.112;2022-09-27T20:03:00;3.50;;;2.42;;
18931;SDS011;9598;50.954;3.112;2022-09-27T20:08:02;3.28;;;1.73;;
18931;SDS011;9598;50.954;3.112;2022-09-27T20:13:06;5.03;;;1.95;;
18931;SDS011;9598;50.954;3.112;2022-09-27T20:18:08;2.97;;;1.60;;
18931;SDS011;9598;50.954;3.112;2022-09-27T20:23:11;4.80;;;2.28;;
18931;SDS011;9598;50.954;3.112;2022-09-27T20:28:14;1.70;;;1.48;;
18931;SDS011;9598;50.954;3.112;2022-09-27T20:33:16;2.63;;;1.35;;
18931;SDS011;9598;50.954;3.112;2022-09-27T20:38:35;3.10;;;2.78;;
18931;SDS011;9598;50.954;3.112;2022-09-27T20:43:39;3.97;;;2.00;;
18931;SDS011;9598;50.954;3.112;2022-09-27T20:48:41;2.08;;;1.60;;
18931;SDS011;9598;50.954;3.112;2022-09-27T20:53:44;2.15;;;1.70;;
18931;SDS011;9598;50.954;3.112;2022-09-27T20:58:47;4.72;;;1.65;;
18931;SDS011;9598;50.954;3.112;2022-09-27T21:03:51;4.03;;;1.98;;
18931;SDS011;9598;50.954;3.112;2022-09-27T21:08:54;3.53;;;2.28;;
18931;SDS011;9598;50.954;3.112;2022-09-27T21:13:58;3.53;;;2.00;;
18931;SDS011;9598;50.954;3.112;2022-09-27T21:19:01;2.92;;;2.10;;
18931;SDS011;9598;50.954;3.112;2022-09-27T21:24:05;2.15;;;1.88;;
18931;SDS011;9598;50.954;3.112;2022-09-27T21:29:08;3.55;;;2.03;;
18931;SDS011;9598;50.954;3.112;2022-09-27T21:34:12;3.97;;;2.03;;
18931;SDS011;9598;50.954;3.112;2022-09-27T21:39:14;3.58;;;2.20;;
18931;SDS011;9598;50.954;3.112;2022-09-27T21:44:17;2.65;;;1.65;;
18931;SDS011;9598;50.954;3.112;2022-09-27T21:49:19;3.50;;;1.80;;
18931;SDS011;9598;50.954;3.112;2022-09-27T21:54:21;2.55;;;1.67;;
18931;SDS011;9598;50.954;3.112;2022-09-27T21:59:24;1.83;;;1.33;;
18931;SDS011;9598;50.954;3.112;2022-09-27T22:04:26;3.00;;;1.70;;
18931;SDS011;9598;50.954;3.112;2022-09-27T22:09:28;3.08;;;1.70;;
18931;SDS011;9598;50.954;3.112;2022-09-27T22:14:32;2.30;;;1.88;;
18931;SDS011;9598;50.954;3.112;2022-09-27T22:19:34;3.88;;;1.70;;
18931;SDS011;9598;50.954;3.112;2022-09-27T22:24:36;3.85;;;1.70;;
18931;SDS011;9598;50.954;3.112;2022-09-27T22:29:40;2.97;;;1.55;;
18931;SDS011;9598;50.954;3.112;2022-09-27T22:34:42;2.25;;;1.90;;
18931;SDS011;9598;50.954;3.112;2022-09-27T22:39:44;3.63;;;1.63;;
18931;SDS011;9598;50.954;3.112;2022-09-27T22:44:47;4.45;;;1.95;;
18931;SDS011;9598;50.954;3.112;2022-09-27T22:49:49;3.42;;;1.83;;
18931;SDS011;9598;50.954;3.112;2022-09-27T22:54:51;3.53;;;2.55;;
18931;SDS011;9598;50.954;3.112;2022-09-27T22:59:55;4.80;;;1.98;;
18931;SDS011;9598;50.954;3.112;2022-09-27T23:04:57;2.72;;;2.05;;
18931;SDS011;9598;50.954;3.112;2022-09-27T23:09:59;3.05;;;2.15;;
18931;SDS011;9598;50.954;3.112;2022-09-27T23:15:02;4.05;;;1.95;;
18931;SDS011;9598;50.954;3.112;2022-09-27T23:20:05;4.95;;;2.20;;
18931;SDS011;9598;50.954;3.112;2022-09-27T23:25:08;3.13;;;2.35;;
18931;SDS011;9598;50.954;3.112;2022-09-27T23:30:12;3.90;;;2.33;;
18931;SDS011;9598;50.954;3.112;2022-09-27T23:35:15;3.88;;;2.85;;
18931;SDS011;9598;50.954;3.112;2022-09-27T23:40:17;4.60;;;2.67;;
18931;SDS011;9598;50.954;3.112;2022-09-27T23:45:21;4.45;;;2.30;;
18931;SDS011;9598;50.954;3.112;2022-09-27T23:50:23;5.28;;;2.38;;
18931;SDS011;9598;50.954;3.112;2022-09-27T23:55:25;3.40;;;2.33;;
